sensor_id;sensor_type;location;lat;lon;timestamp;pressure;altitude;pressure_sealevel;temperature;humidity
6136;BME280;24008;42.664;23.372;2023-04-21T00:00:27;94348.41;;;9.15;90.94
6136;BME280;24008;42.664;23.372;2023-04-21T00:02:55;94345.72;;;9.07;91.08
6136;BME280;24008;42.664;23.372;2023-04-21T00:05:22;94344.56;;;9.01;91.64
6136;BME280;24008;42.664;23.372;2023-04-21T00:07:49;94342.84;;;8.92;92.42
6136;BME280;24008;42.664;23.372;2023-04-21T00:10:16;94335.09;;;8.84;92.41
6136;BME280;24008;42.664;23.372;2023-04-21T00:12:43;94334.31;;;8.74;93.71
6136;BME280;24008;42.664;23.372;2023-04-21T00:15:10;94336.91;;;8.64;93.21
6136;BME280;24008;42.664;23.372;2023-04-21T00:17:37;94334.91;;;8.58;94.46
6136;BME280;24008;42.664;23.372;2023-04-21T00:20:06;94340.28;;;8.55;94.66
6136;BME280;24008;42.664;23.372;2023-04-21T00:22:34;94344.84;;;8.51;95.12
6136;BME280;24008;42.664;23.372;2023-04-21T00:25:01;94218.47;;;7.75;95.54
6136;BME280;24008;42.664;23.372;2023-04-21T00:27:28;94256.22;;;7.99;95.85
6136;BME280;24008;42.664;23.372;2023-04-21T00:29:55;94169.28;;;7.47;94.41
6136;BME280;24008;42.664;23.372;2023-04-21T00:32:21;94343.34;;;8.58;94.96
6136;BME280;24008;42.664;23.372;2023-04-21T00:34:48;94341.34;;;8.62;96.14
6136;BME280;24008;42.664;23.372;2023-04-21T00:37:16;94349.09;;;8.60;96.21
6136;BME280;24008;42.664;23.372;2023-04-21T00:39:43;94292.22;;;8.13;96.75
6136;BME280;24008;42.664;23.372;2023-04-21T00:42:10;94343.78;;;8.54;96.99
6136;BME280;24008;42.664;23.372;2023-04-21T00:44:36;94345.66;;;8.52;96.61
6136;BME280;24008;42.664;23.372;2023-04-21T00:47:03;94347.41;;;8.51;97.60
6136;BME280;24008;42.664;23.372;2023-04-21T00:49:30;94347.53;;;8.50;96.45
6136;BME280;24008;42.664;23.372;2023-04-21T00:51:57;94343.50;;;8.47;96.87
6136;BME280;24008;42.664;23.372;2023-04-21T00:54:26;94222.53;;;7.68;96.84
6136;BME280;24008;42.664;23.372;2023-04-21T00:56:53;94215.03;;;7.56;97.09
6136;BME280;24008;42.664;23.372;2023-04-21T00:59:21;94214.47;;;7.63;96.64
6136;BME280;24008;42.664;23.372;2023-04-21T01:01:48;94335.75;;;8.39;96.30
6136;BME280;24008;42.664;23.372;2023-04-21T01:04:14;94339.50;;;8.35;96.12
6136;BME280;24008;42.664;23.372;2023-04-21T01:06:41;94221.84;;;7.66;96.87
6136;BME280;24008;42.664;23.372;2023-04-21T01:09:08;94292.34;;;8.12;97.00
6136;BME280;24008;42.664;23.372;2023-04-21T01:11:38;94331.72;;;8.27;97.43
6136;BME280;24008;42.664;23.372;2023-04-21T01:14:05;94293.44;;;8.00;97.31
6136;BME280;24008;42.664;23.372;2023-04-21T01:16:32;94326.78;;;8.16;98.17
6136;BME280;24008;42.664;23.372;2023-04-21T01:18:59;94350.91;;;8.12;97.83
6136;BME280;24008;42.664;23.372;2023-04-21T01:21:26;94325.88;;;8.07;98.27
6136;BME280;24008;42.664;23.372;2023-04-21T01:23:54;94286.91;;;7.78;98.26
6136;BME280;24008;42.664;23.372;2023-04-21T01:26:21;94272.03;;;7.64;99.07
6136;BME280;24008;42.664;23.372;2023-04-21T01:28:48;94329.75;;;8.02;100.00
6136;BME280;24008;42.664;23.372;2023-04-21T01:31:15;94302.84;;;7.89;99.85
6136;BME280;24008;42.664;23.372;2023-04-21T01:33:43;94230.03;;;7.40;100.00
6136;BME280;24008;42.664;23.372;2023-04-21T01:36:10;94332.28;;;8.02;100.00
6136;BME280;24008;42.664;23.372;2023-04-21T01:38:38;94332.28;;;8.02;100.00
6136;BME280;24008;42.664;23.372;2023-04-21T01:41:06;94329.38;;;7.97;100.00
6136;BME280;24008;42.664;23.372;2023-04-21T01:43:33;94324.28;;;7.97;100.00
6136;BME280;24008;42.664;23.372;2023-04-21T01:45:59;94334.72;;;7.93;100.00
6136;BME280;24008;42.664;23.372;2023-04-21T01:48:26;94287.16;;;7.65;100.00
6136;BME280;24008;42.664;23.372;2023-04-21T01:50:53;94313.56;;;7.83;100.00
6136;BME280;24008;42.664;23.372;2023-04-21T01:53:20;94314.75;;;7.79;100.00
6136;BME280;24008;42.664;23.372;2023-04-21T01:55:46;94314.34;;;7.74;100.00
6136;BME280;24008;42.664;23.372;2023-04-21T01:58:15;94255.69;;;7.28;100.00
6136;BME280;24008;42.664;23.372;2023-04-21T02:00:41;94313.81;;;7.71;100.00
6136;BME280;24008;42.664;23.372;2023-04-21T02:03:08;94315.69;;;7.69;100.00
6136;BME280;24008;42.664;23.372;2023-04-21T02:05:35;94316.09;;;7.64;100.00
6136;BME280;24008;42.664;23.372;2023-04-21T02:08:01;94320.50;;;7.62;100.00
6136;BME280;24008;42.664;23.372;2023-04-21T02:10:28;94258.91;;;7.20;100.00
6136;BME280;24008;42.664;23.372;2023-04-21T02:12:55;94312.34;;;7.58;100.00
6136;BME280;24008;42.664;23.372;2023-04-21T02:15:23;94312.47;;;7.57;100.00
6136;BME280;24008;42.664;23.372;2023-04-21T02:17:50;94259.72;;;7.20;100.00
6136;BME280;24008;42.664;23.372;2023-04-21T02:20:17;94308.44;;;7.54;100.00
6136;BME280;24008;42.664;23.372;2023-04-21T02:22:43;94304.44;;;7.52;100.00
6136;BME280;24008;42.664;23.372;2023-04-21T02:25:10;94311.25;;;7.51;100.00
6136;BME280;24008;42.664;23.372;2023-04-21T02:27:37;94309.50;;;7.52;100.00
6136;BME280;24008;42.664;23.372;2023-04-21T02:30:05;94312.72;;;7.54;100.00
6136;BME280;24008;42.664;23.372;2023-04-21T02:32:33;94087.66;;;6.15;100.00
6136;BME280;24008;42.664;23.372;2023-04-21T02:35:00;94319.44;;;7.55;100.00
6136;BME280;24008;42.664;23.372;2023-04-21T02:37:27;94304.97;;;7.55;100.00
6136;BME280;24008;42.664;23.372;2023-04-21T02:39:54;94277.66;;;7.38;100.00
6136;BME280;24008;42.664;23.372;2023-04-21T02:42:20;94255.44;;;7.21;100.00
6136;BME280;24008;42.664;23.372;2023-04-21T02:44:47;94281.16;;;7.47;98.44
6136;BME280;24008;42.664;23.372;2023-04-21T02:47:14;94311.97;;;7.73;97.10
6136;BME280;24008;42.664;23.372;2023-04-21T02:49:43;94301.78;;;7.82;95.26
6136;BME280;24008;42.664;23.372;2023-04-21T02:52:10;94312.19;;;7.89;93.82
6136;BME280;24008;42.664;23.372;2023-04-21T02:54:36;94323.72;;;7.93;92.52
6136;BME280;24008;42.664;23.372;2023-04-21T02:57:03;94318.50;;;7.94;92.34
6136;BME280;24008;42.664;23.372;2023-04-21T02:59:30;94324.53;;;7.93;91.48
6136;BME280;24008;42.664;23.372;2023-04-21T03:01:57;94302.56;;;7.83;90.97
6136;BME280;24008;42.664;23.372;2023-04-21T03:04:23;94308.47;;;7.83;91.41
6136;BME280;24008;42.664;23.372;2023-04-21T03:06:53;94304.72;;;7.78;91.80
6136;BME280;24008;42.664;23.372;2023-04-21T03:09:20;94256.50;;;7.38;92.71
6136;BME280;24008;42.664;23.372;2023-04-21T03:11:47;94311.81;;;7.74;93.16
6136;BME280;24008;42.664;23.372;2023-04-21T03:14:14;94309.25;;;7.74;93.78
6136;BME280;24008;42.664;23.372;2023-04-21T03:16:41;94282.47;;;7.51;94.09
6136;BME280;24008;42.664;23.372;2023-04-21T03:19:07;94236.72;;;7.12;94.27
6136;BME280;24008;42.664;23.372;2023-04-21T03:21:36;94312.22;;;7.79;94.28
6136;BME280;24008;42.664;23.372;2023-04-21T03:24:06;94316.75;;;7.85;94.54
6136;BME280;24008;42.664;23.372;2023-04-21T03:26:33;94315.56;;;7.89;93.77
6136;BME280;24008;42.664;23.372;2023-04-21T03:28:59;94314.22;;;7.95;93.02
6136;BME280;24008;42.664;23.372;2023-04-21T03:31:26;94330.00;;;7.99;92.60
6136;BME280;24008;42.664;23.372;2023-04-21T03:33:53;94333.91;;;8.03;92.06
6136;BME280;24008;42.664;23.372;2023-04-21T03:36:19;94326.66;;;7.98;90.54
6136;BME280;24008;42.664;23.372;2023-04-21T03:38:46;94323.47;;;7.96;90.23
6136;BME280;24008;42.664;23.372;2023-04-21T03:41:14;94327.19;;;8.02;90.18
6136;BME280;24008;42.664;23.372;2023-04-21T03:43:41;94231.75;;;7.40;90.61
6136;BME280;24008;42.664;23.372;2023-04-21T03:46:16;94331.22;;;8.14;90.63
6136;BME280;24008;42.664;23.372;2023-04-21T03:48:43;94331.75;;;8.17;90.02
6136;BME280;24008;42.664;23.372;2023-04-21T03:51:10;94167.69;;;7.07;89.99
6136;BME280;24008;42.664;23.372;2023-04-21T03:53:37;94335.91;;;8.18;90.05
6136;BME280;24008;42.664;23.372;2023-04-21T03:56:04;94369.81;;;8.19;89.15
6136;BME280;24008;42.664;23.372;2023-04-21T03:58:32;94347.81;;;8.18;89.72
6136;BME280;24008;42.664;23.372;2023-04-21T04:00:59;94192.03;;;7.19;90.48
6136;BME280;24008;42.664;23.372;2023-04-21T04:03:26;94345.94;;;8.20;90.19
6136;BME280;24008;42.664;23.372;2023-04-21T04:05:53;94307.91;;;7.89;90.93
6136;BME280;24008;42.664;23.372;2023-04-21T04:08:20;94347.53;;;8.30;90.75
6136;BME280;24008;42.664;23.372;2023-04-21T04:10:47;94325.84;;;8.17;90.20
6136;BME280;24008;42.664;23.372;2023-04-21T04:13:13;94359.34;;;8.41;89.13
6136;BME280;24008;42.664;23.372;2023-04-21T04:15:42;94295.56;;;8.14;88.69
6136;BME280;24008;42.664;23.372;2023-04-21T04:18:09;94357.69;;;8.59;88.33
6136;BME280;24008;42.664;23.372;2023-04-21T04:20:35;94365.16;;;8.71;88.41
6136;BME280;24008;42.664;23.372;2023-04-21T04:23:02;94365.00;;;8.82;87.81
6136;BME280;24008;42.664;23.372;2023-04-21T04:25:29;94364.84;;;8.93;87.29
6136;BME280;24008;42.664;23.372;2023-04-21T04:27:56;94367.22;;;9.04;86.33
6136;BME280;24008;42.664;23.372;2023-04-21T04:30:23;94313.09;;;8.83;86.06
6136;BME280;24008;42.664;23.372;2023-04-21T04:32:53;94373.78;;;9.34;85.77
6136;BME280;24008;42.664;23.372;2023-04-21T04:35:22;94368.34;;;9.47;84.84
6136;BME280;24008;42.664;23.372;2023-04-21T04:37:49;94374.06;;;9.58;83.04
6136;BME280;24008;42.664;23.372;2023-04-21T04:40:16;94376.78;;;9.74;82.78
6136;BME280;24008;42.664;23.372;2023-04-21T04:42:43;94375.34;;;9.90;80.96
6136;BME280;24008;42.664;23.372;2023-04-21T04:45:11;94315.91;;;9.62;79.94
6136;BME280;24008;42.664;23.372;2023-04-21T04:47:38;94202.03;;;8.90;78.45
6136;BME280;24008;42.664;23.372;2023-04-21T04:50:07;94383.94;;;9.89;77.82
6136;BME280;24008;42.664;23.372;2023-04-21T04:52:33;94387.50;;;9.78;78.37
6136;BME280;24008;42.664;23.372;2023-04-21T04:55:00;94388.75;;;9.74;79.38
6136;BME280;24008;42.664;23.372;2023-04-21T04:57:29;94386.34;;;9.72;80.03
6136;BME280;24008;42.664;23.372;2023-04-21T04:59:56;94392.31;;;9.63;81.11
6136;BME280;24008;42.664;23.372;2023-04-21T05:02:23;94383.13;;;9.70;80.79
6136;BME280;24008;42.664;23.372;2023-04-21T05:04:49;94385.59;;;9.62;81.58
6136;BME280;24008;42.664;23.372;2023-04-21T05:07:18;94389.69;;;9.73;81.43
6136;BME280;24008;42.664;23.372;2023-04-21T05:09:45;94296.56;;;9.59;82.01
6136;BME280;24008;42.664;23.372;2023-04-21T05:12:11;94370.69;;;10.64;79.07
6136;BME280;24008;42.664;23.372;2023-04-21T05:14:38;94397.16;;;11.07;75.38
6136;BME280;24008;42.664;23.372;2023-04-21T05:17:05;94248.41;;;10.43;75.47
6136;BME280;24008;42.664;23.372;2023-04-21T05:19:34;94394.00;;;11.89;73.55
6136;BME280;24008;42.664;23.372;2023-04-21T05:22:01;94389.72;;;12.38;71.66
6136;BME280;24008;42.664;23.372;2023-04-21T05:24:32;94339.13;;;12.40;69.21
6136;BME280;24008;42.664;23.372;2023-04-21T05:26:59;94394.38;;;12.75;68.11
6136;BME280;24008;42.664;23.372;2023-04-21T05:29:25;94396.91;;;12.91;68.21
6136;BME280;24008;42.664;23.372;2023-04-21T05:31:52;94387.59;;;13.15;67.13
6136;BME280;24008;42.664;23.372;2023-04-21T05:34:19;94391.75;;;13.08;66.61
6136;BME280;24008;42.664;23.372;2023-04-21T05:36:46;94396.09;;;13.15;66.30
6136;BME280;24008;42.664;23.372;2023-04-21T05:39:13;94337.84;;;13.24;65.68
6136;BME280;24008;42.664;23.372;2023-04-21T05:41:42;94392.91;;;14.97;61.57
6136;BME280;24008;42.664;23.372;2023-04-21T05:44:09;94212.75;;;14.38;58.88
6136;BME280;24008;42.664;23.372;2023-04-21T05:46:36;94381.16;;;15.98;57.18
6136;BME280;24008;42.664;23.372;2023-04-21T05:49:03;94393.34;;;16.25;56.34
6136;BME280;24008;42.664;23.372;2023-04-21T05:51:29;94381.53;;;17.01;55.41
6136;BME280;24008;42.664;23.372;2023-04-21T05:53:56;94379.94;;;17.69;51.74
6136;BME280;24008;42.664;23.372;2023-04-21T05:56:23;94326.59;;;18.22;50.10
6136;BME280;24008;42.664;23.372;2023-04-21T05:58:51;94378.69;;;19.44;47.49
6136;BME280;24008;42.664;23.372;2023-04-21T06:01:18;94369.88;;;19.78;45.38
6136;BME280;24008;42.664;23.372;2023-04-21T06:03:45;94370.56;;;20.68;42.92
6136;BME280;24008;42.664;23.372;2023-04-21T06:06:14;94325.91;;;20.53;41.85
6136;BME280;24008;42.664;23.372;2023-04-21T06:08:41;94371.94;;;20.96;41.26
6136;BME280;24008;42.664;23.372;2023-04-21T06:11:08;94285.06;;;20.42;40.92
6136;BME280;24008;42.664;23.372;2023-04-21T06:13:35;94367.47;;;21.03;41.83
6136;BME280;24008;42.664;23.372;2023-04-21T06:16:06;94374.06;;;21.30;40.51
6136;BME280;24008;42.664;23.372;2023-04-21T06:18:33;94371.81;;;21.34;40.26
6136;BME280;24008;42.664;23.372;2023-04-21T06:21:00;94369.09;;;21.47;39.52
6136;BME280;24008;42.664;23.372;2023-04-21T06:23:27;94313.69;;;21.46;39.12
6136;BME280;24008;42.664;23.372;2023-04-21T06:26:00;94319.97;;;21.39;39.16
6136;BME280;24008;42.664;23.372;2023-04-21T06:28:29;94328.56;;;21.39;39.55
6136;BME280;24008;42.664;23.372;2023-04-21T06:30:56;94367.13;;;21.97;38.92
6136;BME280;24008;42.664;23.372;2023-04-21T06:33:25;94365.09;;;21.99;39.63
6136;BME280;24008;42.664;23.372;2023-04-21T06:35:52;94365.53;;;22.56;37.35
6136;BME280;24008;42.664;23.372;2023-04-21T06:38:19;94338.97;;;22.36;37.26
6136;BME280;24008;42.664;23.372;2023-04-21T06:40:46;94327.03;;;21.98;38.33
6136;BME280;24008;42.664;23.372;2023-04-21T06:43:13;94369.72;;;21.79;39.56
6136;BME280;24008;42.664;23.372;2023-04-21T06:45:41;94311.25;;;20.65;39.89
6136;BME280;24008;42.664;23.372;2023-04-21T06:48:08;94366.38;;;19.53;42.47
6136;BME280;24008;42.664;23.372;2023-04-21T06:50:36;94372.44;;;18.81;44.75
6136;BME280;24008;42.664;23.372;2023-04-21T06:53:02;94338.84;;;19.32;45.17
6136;BME280;24008;42.664;23.372;2023-04-21T06:55:29;94347.31;;;20.17;42.54
6136;BME280;24008;42.664;23.372;2023-04-21T06:57:56;94290.97;;;20.24;41.79
6136;BME280;24008;42.664;23.372;2023-04-21T07:00:23;94292.06;;;20.41;41.06
6136;BME280;24008;42.664;23.372;2023-04-21T07:02:50;94358.25;;;21.68;40.08
6136;BME280;24008;42.664;23.372;2023-04-21T07:05:16;94349.81;;;22.74;38.91
6136;BME280;24008;42.664;23.372;2023-04-21T07:07:44;94305.69;;;22.79;37.80
6136;BME280;24008;42.664;23.372;2023-04-21T07:10:11;94360.31;;;22.14;38.27
6136;BME280;24008;42.664;23.372;2023-04-21T07:12:43;94361.63;;;22.05;39.08
6136;BME280;24008;42.664;23.372;2023-04-21T07:15:10;94328.38;;;21.89;39.14
6136;BME280;24008;42.664;23.372;2023-04-21T07:17:37;94357.53;;;22.27;38.50
6136;BME280;24008;42.664;23.372;2023-04-21T07:20:05;94324.44;;;22.58;38.14
6136;BME280;24008;42.664;23.372;2023-04-21T07:22:32;94355.19;;;23.14;38.17
6136;BME280;24008;42.664;23.372;2023-04-21T07:25:02;94323.44;;;23.41;37.13
6136;BME280;24008;42.664;23.372;2023-04-21T07:27:30;94322.88;;;23.50;37.32
6136;BME280;24008;42.664;23.372;2023-04-21T07:29:57;94306.78;;;23.30;35.53
6136;BME280;24008;42.664;23.372;2023-04-21T07:32:24;94353.69;;;22.83;36.69
6136;BME280;24008;42.664;23.372;2023-04-21T07:34:50;94357.31;;;22.29;37.99
6136;BME280;24008;42.664;23.372;2023-04-21T07:37:17;94348.34;;;21.77;39.47
6136;BME280;24008;42.664;23.372;2023-04-21T07:39:44;94294.19;;;21.19;40.02
6136;BME280;24008;42.664;23.372;2023-04-21T07:42:12;94324.53;;;21.25;39.90
6136;BME280;24008;42.664;23.372;2023-04-21T07:44:39;94351.63;;;21.36;40.29
6136;BME280;24008;42.664;23.372;2023-04-21T07:47:06;94351.63;;;21.36;40.40
6136;BME280;24008;42.664;23.372;2023-04-21T07:49:33;94345.31;;;21.80;40.20
6136;BME280;24008;42.664;23.372;2023-04-21T07:51:59;94349.75;;;22.81;37.73
6136;BME280;24008;42.664;23.372;2023-04-21T07:54:26;94347.34;;;23.49;36.94
6136;BME280;24008;42.664;23.372;2023-04-21T07:56:53;94329.47;;;23.29;35.81
6136;BME280;24008;42.664;23.372;2023-04-21T07:59:21;94317.91;;;22.90;35.94
6136;BME280;24008;42.664;23.372;2023-04-21T08:01:48;94331.53;;;23.04;38.21
6136;BME280;24008;42.664;23.372;2023-04-21T08:04:16;94349.28;;;23.94;36.36
6136;BME280;24008;42.664;23.372;2023-04-21T08:06:42;94354.31;;;24.69;35.83
6136;BME280;24008;42.664;23.372;2023-04-21T08:09:09;94311.31;;;25.10;34.72
6136;BME280;24008;42.664;23.372;2023-04-21T08:11:36;94356.94;;;25.58;33.97
6136;BME280;24008;42.664;23.372;2023-04-21T08:14:03;94354.94;;;24.76;34.92
6136;BME280;24008;42.664;23.372;2023-04-21T08:16:31;94370.78;;;23.84;34.97
6136;BME280;24008;42.664;23.372;2023-04-21T08:18:58;94354.53;;;22.54;36.25
6136;BME280;24008;42.664;23.372;2023-04-21T08:21:24;94356.41;;;22.05;37.49
6136;BME280;24008;42.664;23.372;2023-04-21T08:23:51;94355.66;;;21.98;38.19
6136;BME280;24008;42.664;23.372;2023-04-21T08:26:20;94330.75;;;21.61;38.84
6136;BME280;24008;42.664;23.372;2023-04-21T08:28:46;94283.03;;;20.94;39.96
6136;BME280;24008;42.664;23.372;2023-04-21T08:31:14;94343.94;;;21.41;39.96
6136;BME280;24008;42.664;23.372;2023-04-21T08:33:42;94345.56;;;21.90;39.93
6136;BME280;24008;42.664;23.372;2023-04-21T08:36:09;94328.94;;;22.09;37.65
6136;BME280;24008;42.664;23.372;2023-04-21T08:38:37;94302.81;;;21.68;38.30
6136;BME280;24008;42.664;23.372;2023-04-21T08:41:04;94354.56;;;22.24;38.58
6136;BME280;24008;42.664;23.372;2023-04-21T08:43:31;94322.28;;;22.13;37.81
6136;BME280;24008;42.664;23.372;2023-04-21T08:45:59;94168.41;;;21.80;37.48
6136;BME280;24008;42.664;23.372;2023-04-21T08:48:26;94347.38;;;23.26;36.16
6136;BME280;24008;42.664;23.372;2023-04-21T08:50:57;94338.75;;;23.37;36.75
6136;BME280;24008;42.664;23.372;2023-04-21T08:53:24;94337.22;;;24.04;36.03
6136;BME280;24008;42.664;23.372;2023-04-21T08:55:51;94152.22;;;22.94;34.73
6136;BME280;24008;42.664;23.372;2023-04-21T08:58:19;94333.00;;;24.60;35.24
6136;BME280;24008;42.664;23.372;2023-04-21T09:00:47;94333.91;;;24.99;33.97
6136;BME280;24008;42.664;23.372;2023-04-21T09:03:20;94326.53;;;25.73;32.45
6136;BME280;24008;42.664;23.372;2023-04-21T09:05:57;94320.47;;;25.29;32.24
6136;BME280;24008;42.664;23.372;2023-04-21T09:08:25;94326.69;;;24.73;33.52
6136;BME280;24008;42.664;23.372;2023-04-21T09:10:54;94314.53;;;25.17;32.79
6136;BME280;24008;42.664;23.372;2023-04-21T09:13:28;94128.59;;;23.53;32.21
6136;BME280;24008;42.664;23.372;2023-04-21T09:15:55;94299.03;;;25.10;33.88
6136;BME280;24008;42.664;23.372;2023-04-21T09:18:23;94284.03;;;25.44;34.24
6136;BME280;24008;42.664;23.372;2023-04-21T09:20:51;94221.53;;;25.48;33.34
6136;BME280;24008;42.664;23.372;2023-04-21T09:23:28;94300.84;;;25.92;31.86
6136;BME280;24008;42.664;23.372;2023-04-21T09:25:55;94286.44;;;24.40;32.07
6136;BME280;24008;42.664;23.372;2023-04-21T09:28:22;94311.25;;;23.69;33.92
6136;BME280;24008;42.664;23.372;2023-04-21T09:30:56;94236.94;;;22.15;35.66
6136;BME280;24008;42.664;23.372;2023-04-21T09:33:23;94305.47;;;21.79;37.11
6136;BME280;24008;42.664;23.372;2023-04-21T09:35:51;94275.13;;;20.64;37.65
6136;BME280;24008;42.664;23.372;2023-04-21T09:38:20;94304.53;;;20.26;39.73
6136;BME280;24008;42.664;23.372;2023-04-21T09:40:56;94209.19;;;19.14;39.63
6136;BME280;24008;42.664;23.372;2023-04-21T09:43:23;94303.25;;;19.79;39.78
6136;BME280;24008;42.664;23.372;2023-04-21T09:45:50;94307.78;;;19.84;40.11
6136;BME280;24008;42.664;23.372;2023-04-21T09:48:18;94244.09;;;19.56;39.94
6136;BME280;24008;42.664;23.372;2023-04-21T09:50:46;94302.31;;;19.98;39.87
6136;BME280;24008;42.664;23.372;2023-04-21T09:53:15;94208.19;;;19.91;38.96
6136;BME280;24008;42.664;23.372;2023-04-21T09:55:43;94300.06;;;21.63;37.54
6136;BME280;24008;42.664;23.372;2023-04-21T09:58:15;94240.22;;;21.81;37.35
6136;BME280;24008;42.664;23.372;2023-04-21T10:00:45;94260.81;;;21.82;36.51
6136;BME280;24008;42.664;23.372;2023-04-21T10:03:13;94253.59;;;21.00;36.70
6136;BME280;24008;42.664;23.372;2023-04-21T10:05:42;94264.47;;;20.47;36.69
6136;BME280;24008;42.664;23.372;2023-04-21T10:08:10;94290.41;;;19.91;38.28
6136;BME280;24008;42.664;23.372;2023-04-21T10:10:37;94280.63;;;19.55;39.25
6136;BME280;24008;42.664;23.372;2023-04-21T10:13:04;94279.56;;;19.62;40.59
6136;BME280;24008;42.664;23.372;2023-04-21T10:15:34;94279.78;;;19.61;41.16
6136;BME280;24008;42.664;23.372;2023-04-21T10:18:14;94280.38;;;19.63;41.42
6136;BME280;24008;42.664;23.372;2023-04-21T10:20:54;94196.69;;;18.98;40.33
6136;BME280;24008;42.664;23.372;2023-04-21T10:23:29;94289.47;;;19.27;41.31
6136;BME280;24008;42.664;23.372;2023-04-21T10:26:04;94284.28;;;19.27;42.65
6136;BME280;24008;42.664;23.372;2023-04-21T10:28:46;94275.22;;;18.85;43.21
6136;BME280;24008;42.664;23.372;2023-04-21T10:31:22;94217.09;;;18.61;43.49
6136;BME280;24008;42.664;23.372;2023-04-21T10:34:13;94271.72;;;19.24;43.07
6136;BME280;24008;42.664;23.372;2023-04-21T10:37:17;94276.81;;;18.80;43.17
6136;BME280;24008;42.664;23.372;2023-04-21T10:39:54;94276.03;;;18.73;43.69
6136;BME280;24008;42.664;23.372;2023-04-21T10:42:27;94274.06;;;18.61;43.88
6136;BME280;24008;42.664;23.372;2023-04-21T10:45:15;94224.50;;;18.18;44.34
6136;BME280;24008;42.664;23.372;2023-04-21T10:47:47;94275.22;;;18.52;44.79
6136;BME280;24008;42.664;23.372;2023-04-21T10:50:17;94269.94;;;19.25;45.46
6136;BME280;24008;42.664;23.372;2023-04-21T10:52:46;94278.19;;;19.60;42.54
6136;BME280;24008;42.664;23.372;2023-04-21T10:55:13;94279.72;;;19.74;43.02
6136;BME280;24008;42.664;23.372;2023-04-21T10:57:43;94162.88;;;18.93;43.23
6136;BME280;24008;42.664;23.372;2023-04-21T11:00:14;94284.63;;;19.51;41.68
6136;BME280;24008;42.664;23.372;2023-04-21T11:02:42;94271.66;;;19.44;42.65
6136;BME280;24008;42.664;23.372;2023-04-21T11:05:11;94223.84;;;18.76;42.34
6136;BME280;24008;42.664;23.372;2023-04-21T11:07:38;94199.59;;;18.70;41.79
6136;BME280;24008;42.664;23.372;2023-04-21T11:10:07;94269.97;;;19.12;40.87
6136;BME280;24008;42.664;23.372;2023-04-21T11:12:37;94276.94;;;19.11;41.22
6136;BME280;24008;42.664;23.372;2023-04-21T11:15:05;94234.91;;;19.16;41.02
6136;BME280;24008;42.664;23.372;2023-04-21T11:17:33;94274.31;;;19.24;40.75
6136;BME280;24008;42.664;23.372;2023-04-21T11:20:01;94270.06;;;18.65;44.07
6136;BME280;24008;42.664;23.372;2023-04-21T11:22:30;94171.53;;;17.55;45.37
6136;BME280;24008;42.664;23.372;2023-04-21T11:24:57;94268.03;;;17.88;46.50
6136;BME280;24008;42.664;23.372;2023-04-21T11:27:25;94239.38;;;17.70;46.36
6136;BME280;24008;42.664;23.372;2023-04-21T11:29:52;94264.44;;;17.89;46.30
6136;BME280;24008;42.664;23.372;2023-04-21T11:32:20;94238.63;;;18.16;47.28
6136;BME280;24008;42.664;23.372;2023-04-21T11:34:46;94233.84;;;18.59;46.10
6136;BME280;24008;42.664;23.372;2023-04-21T11:37:14;94259.22;;;19.15;46.14
6136;BME280;24008;42.664;23.372;2023-04-21T11:39:43;94267.72;;;19.28;43.90
6136;BME280;24008;42.664;23.372;2023-04-21T11:42:10;94269.63;;;19.46;43.78
6136;BME280;24008;42.664;23.372;2023-04-21T11:44:38;94266.91;;;19.34;44.06
6136;BME280;24008;42.664;23.372;2023-04-21T11:47:12;94249.75;;;18.76;45.57
6136;BME280;24008;42.664;23.372;2023-04-21T11:49:50;94274.44;;;18.19;46.65
6136;BME280;24008;42.664;23.372;2023-04-21T11:52:20;94276.78;;;17.87;46.46
6136;BME280;24008;42.664;23.372;2023-04-21T11:54:55;94164.81;;;16.93;46.42
6136;BME280;24008;42.664;23.372;2023-04-21T11:57:22;94277.09;;;17.58;46.64
6136;BME280;24008;42.664;23.372;2023-04-21T11:59:50;94235.69;;;17.45;46.33
6136;BME280;24008;42.664;23.372;2023-04-21T12:02:21;94183.00;;;17.33;46.63
6136;BME280;24008;42.664;23.372;2023-04-21T12:04:59;94243.72;;;17.63;45.86
6136;BME280;24008;42.664;23.372;2023-04-21T12:07:29;94269.22;;;17.79;44.53
6136;BME280;24008;42.664;23.372;2023-04-21T12:09:57;94267.25;;;17.94;44.69
6136;BME280;24008;42.664;23.372;2023-04-21T12:12:24;94246.16;;;17.84;44.08
6136;BME280;24008;42.664;23.372;2023-04-21T12:14:51;94262.50;;;18.05;43.69
6136;BME280;24008;42.664;23.372;2023-04-21T12:17:18;94269.44;;;17.91;43.85
6136;BME280;24008;42.664;23.372;2023-04-21T12:19:46;94057.06;;;16.61;43.41
6136;BME280;24008;42.664;23.372;2023-04-21T12:22:14;94239.38;;;17.70;42.19
6136;BME280;24008;42.664;23.372;2023-04-21T12:24:43;94167.72;;;17.38;43.52
6136;BME280;24008;42.664;23.372;2023-04-21T12:27:12;94272.03;;;18.50;43.75
6136;BME280;24008;42.664;23.372;2023-04-21T12:29:39;94243.78;;;18.68;41.57
6136;BME280;24008;42.664;23.372;2023-04-21T12:32:06;94219.50;;;18.50;40.71
6136;BME280;24008;42.664;23.372;2023-04-21T12:34:33;94276.03;;;18.46;41.15
6136;BME280;24008;42.664;23.372;2023-04-21T12:37:00;94271.25;;;18.23;42.00
6136;BME280;24008;42.664;23.372;2023-04-21T12:39:27;94221.69;;;17.80;42.73
6136;BME280;24008;42.664;23.372;2023-04-21T12:41:54;94273.63;;;17.98;42.16
6136;BME280;24008;42.664;23.372;2023-04-21T12:44:23;94264.28;;;17.97;42.89
6136;BME280;24008;42.664;23.372;2023-04-21T12:46:50;94237.81;;;17.82;43.07
6136;BME280;24008;42.664;23.372;2023-04-21T12:49:17;94213.94;;;17.80;42.78
6136;BME280;24008;42.664;23.372;2023-04-21T12:51:44;94145.44;;;17.30;42.54
6136;BME280;24008;42.664;23.372;2023-04-21T12:54:14;94260.69;;;18.05;42.71
6136;BME280;24008;42.664;23.372;2023-04-21T12:56:41;94259.69;;;17.99;44.18
6136;BME280;24008;42.664;23.372;2023-04-21T12:59:09;94258.91;;;18.06;43.68
6136;BME280;24008;42.664;23.372;2023-04-21T13:01:38;94262.69;;;17.96;44.35
6136;BME280;24008;42.664;23.372;2023-04-21T13:04:06;94258.31;;;17.97;43.63
6136;BME280;24008;42.664;23.372;2023-04-21T13:06:33;94257.31;;;18.18;43.67